Time;durP1;ratioP1;P1;durP2;ratioP2;P2;SDS_P1;SDS_P2;PMS_P1;PMS_P2;Temp;Humidity;BMP_temperature;BMP_pressure;BME280_temperature;BME280_humidity;BME280_pressure;Samples;Min_cycle;Max_cycle;Signal;HPM_P1;HPM_P2
2021/08/09 00:01:24;;;;;;;18.23;13.10;;;;;;;;;;5115230;28;19910;-70
2021/08/09 00:03:50;;;;;;;18.70;12.30;;;;;;;;;;5096596;28;20020;-69
2021/08/09 00:06:17;;;;;;;17.30;12.15;;;;;;;;;;5096167;28;20070;-69
2021/08/09 00:08:43;;;;;;;18.88;12.48;;;;;;;;;;5113521;28;20390;-69
2021/08/09 00:11:09;;;;;;;18.85;12.60;;;;;;;;;;5115040;28;20020;-69
2021/08/09 00:13:35;;;;;;;18.60;13.02;;;;;;;;;;5096532;28;20057;-70
2021/08/09 00:16:01;;;;;;;17.92;12.70;;;;;;;;;;5095907;28;20020;-69
2021/08/09 00:18:27;;;;;;;19.50;11.82;;;;;;;;;;5115111;28;20463;-69
2021/08/09 00:20:53;;;;;;;19.30;12.48;;;;;;;;;;5114743;28;20064;-69
2021/08/09 00:23:20;;;;;;;17.00;12.50;;;;;;;;;;5114807;28;20019;-69
2021/08/09 00:25:46;;;;;;;17.92;12.52;;;;;;;;;;5095757;28;20023;-69
2021/08/09 00:28:12;;;;;;;17.27;12.15;;;;;;;;;;5114532;28;20548;-69
2021/08/09 00:30:38;;;;;;;18.38;12.60;;;;;;;;;;5114570;28;20031;-69
2021/08/09 00:33:04;;;;;;;16.92;12.45;;;;;;;;;;5096278;28;20023;-69
2021/08/09 00:35:30;;;;;;;18.85;12.77;;;;;;;;;;5113678;28;20388;-69
2021/08/09 00:37:56;;;;;;;18.05;12.55;;;;;;;;;;5095944;28;20118;-69
2021/08/09 00:40:22;;;;;;;18.38;12.80;;;;;;;;;;5114505;28;20020;-69
2021/08/09 00:42:48;;;;;;;20.98;13.48;;;;;;;;;;5096114;28;20024;-70
2021/08/09 00:45:14;;;;;;;18.95;12.75;;;;;;;;;;5094898;28;20071;-67
2021/08/09 00:47:40;;;;;;;17.25;12.63;;;;;;;;;;5114165;28;20024;-69
2021/08/09 00:50:06;;;;;;;17.40;12.40;;;;;;;;;;5114753;28;20072;-70
2021/08/09 00:52:33;;;;;;;18.98;13.05;;;;;;;;;;5095861;28;20025;-69
2021/08/09 00:54:59;;;;;;;18.90;13.05;;;;;;;;;;5113835;28;20032;-69
2021/08/09 00:57:25;;;;;;;20.00;13.40;;;;;;;;;;5113620;28;20042;-69
2021/08/09 00:59:51;;;;;;;18.40;12.90;;;;;;;;;;5095667;28;20110;-69
2021/08/09 01:02:19;;;;;;;18.50;13.07;;;;;;;;;;5095873;28;20176;-68
2021/08/09 01:04:45;;;;;;;17.53;12.83;;;;;;;;;;5095547;28;20023;-68
2021/08/09 01:07:11;;;;;;;17.77;12.60;;;;;;;;;;5095315;28;20027;-69
2021/08/09 01:09:43;;;;;;;19.95;13.23;;;;;;;;;;5095533;28;20115;-69
2021/08/09 01:12:28;;;;;;;17.77;12.80;;;;;;;;;;5113636;28;20032;-69
2021/08/09 01:14:54;;;;;;;17.55;12.48;;;;;;;;;;5095466;28;20051;-70
2021/08/09 01:17:21;;;;;;;17.98;13.02;;;;;;;;;;5094993;28;20034;-69
2021/08/09 01:19:53;;;;;;;16.83;12.80;;;;;;;;;;5095291;28;20031;-70
2021/08/09 01:22:25;;;;;;;17.05;12.63;;;;;;;;;;5113547;28;20047;-70
2021/08/09 01:25:00;;;;;;;19.50;12.77;;;;;;;;;;5095302;28;20387;-68
2021/08/09 01:27:30;;;;;;;17.80;12.45;;;;;;;;;;5113086;28;20066;-69
2021/08/09 01:29:58;;;;;;;18.10;13.15;;;;;;;;;;5113529;28;20395;-71
2021/08/09 01:32:25;;;;;;;18.50;12.77;;;;;;;;;;5095219;28;20020;-69
2021/08/09 01:34:52;;;;;;;18.92;13.20;;;;;;;;;;5113384;28;20082;-69
2021/08/09 01:37:20;;;;;;;17.13;13.00;;;;;;;;;;5094807;28;20459;-70
2021/08/09 01:39:46;;;;;;;17.65;13.23;;;;;;;;;;5113440;28;20027;-69
2021/08/09 01:42:12;;;;;;;18.33;13.30;;;;;;;;;;5113345;28;20019;-70
2021/08/09 01:44:40;;;;;;;17.33;13.30;;;;;;;;;;5113207;28;20528;-70
2021/08/09 01:47:06;;;;;;;17.67;12.70;;;;;;;;;;5094388;28;20062;-69
2021/08/09 01:49:32;;;;;;;17.17;12.80;;;;;;;;;;5113194;28;20103;-70
2021/08/09 01:51:59;;;;;;;22.30;13.50;;;;;;;;;;5094924;28;20037;-70
2021/08/09 01:54:25;;;;;;;17.30;13.18;;;;;;;;;;5094619;28;20078;-70
2021/08/09 01:56:52;;;;;;;17.65;13.23;;;;;;;;;;5112170;28;20076;-70
2021/08/09 01:59:20;;;;;;;20.23;13.88;;;;;;;;;;5094197;28;20139;-69
2021/08/09 02:01:46;;;;;;;19.02;13.25;;;;;;;;;;5094925;28;20019;-69
2021/08/09 02:04:12;;;;;;;18.50;13.05;;;;;;;;;;5094817;28;20042;-69
2021/08/09 02:06:38;;;;;;;18.13;13.27;;;;;;;;;;5112221;28;20425;-70
2021/08/09 02:09:06;;;;;;;19.60;12.90;;;;;;;;;;5112893;28;20442;-72
2021/08/09 02:11:39;;;;;;;17.80;12.38;;;;;;;;;;5094838;28;20114;-70
2021/08/09 02:14:06;;;;;;;17.55;12.88;;;;;;;;;;5112408;28;20023;-70
2021/08/09 02:16:45;;;;;;;18.38;12.68;;;;;;;;;;5111536;28;20394;-71
2021/08/09 02:19:15;;;;;;;17.58;12.95;;;;;;;;;;5112001;28;20051;-71
2021/08/09 02:21:54;;;;;;;17.85;12.43;;;;;;;;;;5093780;28;20042;-70
2021/08/09 02:24:24;;;;;;;19.13;12.80;;;;;;;;;;5112323;28;20035;-69
2021/08/09 02:26:53;;;;;;;19.48;13.10;;;;;;;;;;5092973;28;20543;-69
2021/08/09 02:29:22;;;;;;;19.80;12.95;;;;;;;;;;5093605;28;20028;-71
2021/08/09 02:31:50;;;;;;;18.73;13.18;;;;;;;;;;5093907;28;20027;-72
2021/08/09 02:34:18;;;;;;;18.77;13.35;;;;;;;;;;5111992;28;20514;-69
2021/08/09 02:36:44;;;;;;;19.85;13.32;;;;;;;;;;5111103;28;20475;-72
2021/08/09 02:39:11;;;;;;;18.00;12.60;;;;;;;;;;5112161;28;20024;-69
2021/08/09 02:41:37;;;;;;;19.58;13.40;;;;;;;;;;5094054;28;20517;-69
2021/08/09 02:44:03;;;;;;;18.33;12.40;;;;;;;;;;5111676;28;20020;-69
2021/08/09 02:46:30;;;;;;;20.55;13.00;;;;;;;;;;5092808;28;20060;-70
2021/08/09 02:48:56;;;;;;;21.83;13.27;;;;;;;;;;5093537;28;20118;-69
2021/08/09 02:51:23;;;;;;;19.10;12.38;;;;;;;;;;5093200;28;20054;-69
2021/08/09 02:53:50;;;;;;;18.85;13.07;;;;;;;;;;5111970;28;20080;-69
2021/08/09 02:56:17;;;;;;;19.55;12.57;;;;;;;;;;5111185;28;20039;-71
2021/08/09 02:58:43;;;;;;;21.10;13.27;;;;;;;;;;5093982;28;20024;-70
2021/08/09 03:01:09;;;;;;;18.58;12.90;;;;;;;;;;5111855;28;20428;-69
2021/08/09 03:03:36;;;;;;;17.27;12.90;;;;;;;;;;5093674;28;20024;-69
2021/08/09 03:06:03;;;;;;;18.60;12.90;;;;;;;;;;5111153;28;20020;-71
2021/08/09 03:08:29;;;;;;;20.52;13.05;;;;;;;;;;5093384;28;20165;-70
2021/08/09 03:10:55;;;;;;;17.42;12.38;;;;;;;;;;5111919;28;20099;-70
2021/08/09 03:13:21;;;;;;;18.08;12.60;;;;;;;;;;5093641;28;20027;-69
2021/08/09 03:15:48;;;;;;;17.75;12.40;;;;;;;;;;5111568;28;20032;-70
2021/08/09 03:18:14;;;;;;;19.73;12.63;;;;;;;;;;5111569;28;20031;-68
2021/08/09 03:20:40;;;;;;;20.98;13.02;;;;;;;;;;5093398;28;20016;-68
2021/08/09 03:23:06;;;;;;;17.95;12.68;;;;;;;;;;5111710;28;20369;-70
2021/08/09 03:25:32;;;;;;;18.20;13.30;;;;;;;;;;5110832;28;20024;-70
2021/08/09 03:28:02;;;;;;;18.73;13.02;;;;;;;;;;5111329;28;20442;-70
2021/08/09 03:30:28;;;;;;;18.08;12.77;;;;;;;;;;5111655;28;20170;-70
2021/08/09 03:32:55;;;;;;;16.40;12.05;;;;;;;;;;5111411;28;20500;-69
2021/08/09 03:35:21;;;;;;;18.10;12.85;;;;;;;;;;5111096;28;20020;-69
2021/08/09 03:37:47;;;;;;;21.75;13.13;;;;;;;;;;5111506;28;20479;-69
2021/08/09 03:40:13;;;;;;;18.45;12.43;;;;;;;;;;5111214;28;20027;-69
2021/08/09 03:42:39;;;;;;;17.23;12.95;;;;;;;;;;5111223;28;20020;-70
2021/08/09 03:45:06;;;;;;;17.23;12.45;;;;;;;;;;5092893;28;20039;-69
2021/08/09 03:47:32;;;;;;;18.35;12.95;;;;;;;;;;5093122;28;20487;-69
2021/08/09 03:49:58;;;;;;;18.63;12.48;;;;;;;;;;5111209;28;20343;-69
2021/08/09 03:52:24;;;;;;;18.60;12.75;;;;;;;;;;5092780;28;20095;-69
2021/08/09 03:54:50;;;;;;;18.52;12.95;;;;;;;;;;5111026;28;20031;-69
2021/08/09 03:57:16;;;;;;;19.98;13.65;;;;;;;;;;5092149;28;20031;-70
2021/08/09 03:59:42;;;;;;;20.27;12.68;;;;;;;;;;5111172;28;20055;-69
2021/08/09 04:02:13;;;;;;;17.92;12.73;;;;;;;;;;5093029;28;20024;-69
2021/08/09 04:04:39;;;;;;;19.10;13.60;;;;;;;;;;5111458;28;20090;-69
2021/08/09 04:07:05;;;;;;;19.15;13.07;;;;;;;;;;5111113;28;20498;-70
2021/08/09 04:09:31;;;;;;;16.70;12.90;;;;;;;;;;5092850;28;20028;-70
2021/08/09 04:11:57;;;;;;;18.85;12.95;;;;;;;;;;5092972;28;20471;-70
2021/08/09 04:14:23;;;;;;;17.52;13.23;;;;;;;;;;5111003;28;20048;-69
2021/08/09 04:16:49;;;;;;;19.65;13.25;;;;;;;;;;5091959;28;20471;-70
2021/08/09 04:19:15;;;;;;;17.98;13.40;;;;;;;;;;5092725;28;20122;-72
2021/08/09 04:21:41;;;;;;;17.35;13.10;;;;;;;;;;5113151;28;20452;-70
2021/08/09 04:24:07;;;;;;;21.58;14.27;;;;;;;;;;5114699;28;20479;-70
2021/08/09 04:26:33;;;;;;;19.63;13.18;;;;;;;;;;5114300;28;20147;-69
2021/08/09 04:29:02;;;;;;;18.80;13.38;;;;;;;;;;5096358;28;20027;-69
2021/08/09 04:31:28;;;;;;;;;;;;;;;;;;5115146;28;20061;-70
2021/08/09 04:33:54;;;;;;;19.58;13.32;;;;;;;;;;5096266;28;20010;-70
2021/08/09 04:36:20;;;;;;;23.35;13.60;;;;;;;;;;5114031;28;20020;-70
2021/08/09 04:38:46;;;;;;;20.20;14.52;;;;;;;;;;5114343;28;20373;-70
2021/08/09 04:41:12;;;;;;;24.13;13.98;;;;;;;;;;5114612;28;20081;-73
2021/08/09 04:43:40;;;;;;;19.65;13.30;;;;;;;;;;5114389;28;20035;-71
2021/08/09 04:46:06;;;;;;;21.40;13.88;;;;;;;;;;5113447;28;20020;-69
2021/08/09 04:48:33;;;;;;;19.42;13.13;;;;;;;;;;5095861;28;20116;-69
2021/08/09 04:50:59;;;;;;;18.05;12.90;;;;;;;;;;5096056;28;20027;-70
2021/08/09 04:53:26;;;;;;;18.80;12.50;;;;;;;;;;5096097;28;20085;-69
2021/08/09 04:55:52;;;;;;;18.10;13.15;;;;;;;;;;5113435;28;20055;-71
2021/08/09 04:58:18;;;;;;;17.55;12.32;;;;;;;;;;5093815;28;20055;-69
2021/08/09 05:00:44;;;;;;;19.85;12.60;;;;;;;;;;5105130;28;20069;-69
2021/08/09 05:03:10;;;;;;;18.52;13.00;;;;;;;;;;5081997;28;20019;-69
2021/08/09 05:05:36;;;;;;;18.52;12.90;;;;;;;;;;5113439;28;20066;-69
2021/08/09 05:08:02;;;;;;;18.67;12.77;;;;;;;;;;5102344;28;20103;-69
2021/08/09 05:10:28;;;;;;;19.92;12.63;;;;;;;;;;5093493;28;20020;-69
2021/08/09 05:12:54;;;;;;;19.95;13.00;;;;;;;;;;5093256;28;20017;-69
2021/08/09 05:15:26;;;;;;;18.20;12.85;;;;;;;;;;5093555;28;20081;-69
2021/08/09 05:17:52;;;;;;;19.52;13.10;;;;;;;;;;5113904;28;20036;-69
2021/08/09 05:20:18;;;;;;;19.98;13.18;;;;;;;;;;5113380;28;20488;-69
2021/08/09 05:22:44;;;;;;;20.15;13.20;;;;;;;;;;5113545;28;20024;-69
2021/08/09 05:25:10;;;;;;;18.98;13.32;;;;;;;;;;5113023;28;20073;-69
2021/08/09 05:27:37;;;;;;;17.25;12.60;;;;;;;;;;5113673;28;20073;-70
2021/08/09 05:30:03;;;;;;;20.95;13.38;;;;;;;;;;5078497;28;20551;-69
2021/08/09 05:32:30;;;;;;;18.83;12.77;;;;;;;;;;5111503;28;20064;-69
2021/08/09 05:34:58;;;;;;;17.38;12.68;;;;;;;;;;5092802;28;20111;-70
2021/08/09 05:37:24;;;;;;;20.93;13.80;;;;;;;;;;5094881;28;20084;-68
2021/08/09 05:39:50;;;;;;;19.38;12.90;;;;;;;;;;5084814;28;20080;-69
2021/08/09 05:42:16;;;;;;;17.45;13.00;;;;;;;;;;5107721;28;20026;-69
2021/08/09 05:44:42;;;;;;;20.80;12.70;;;;;;;;;;5094510;28;20461;-69
2021/08/09 05:47:08;;;;;;;20.90;13.30;;;;;;;;;;5112209;28;20027;-69
2021/08/09 05:49:34;;;;;;;20.52;13.38;;;;;;;;;;5112890;28;20027;-69
2021/08/09 05:52:00;;;;;;;21.77;13.18;;;;;;;;;;5112984;28;20027;-69
2021/08/09 05:54:26;;;;;;;18.08;13.30;;;;;;;;;;5137752;22;20032;-61
2021/08/09 05:56:51;;;;;;;20.05;12.93;;;;;;;;;;5070101;28;20036;-62
2021/08/09 05:59:17;;;;;;;21.95;12.50;;;;;;;;;;5072946;28;20024;-63
2021/08/09 06:01:43;;;;;;;20.10;12.88;;;;;;;;;;5073062;28;20031;-65
2021/08/09 06:04:09;;;;;;;17.25;12.63;;;;;;;;;;5073605;28;20020;-63
2021/08/09 06:06:35;;;;;;;21.42;13.23;;;;;;;;;;5054147;28;20086;-65
2021/08/09 06:09:01;;;;;;;17.85;12.90;;;;;;;;;;5072224;28;20063;-65
2021/08/09 06:11:27;;;;;;;19.00;12.70;;;;;;;;;;5053935;28;20044;-63
2021/08/09 06:13:53;;;;;;;17.45;12.25;;;;;;;;;;5072105;28;20048;-63
2021/08/09 06:16:19;;;;;;;20.50;12.48;;;;;;;;;;5069538;28;20023;-65
2021/08/09 06:18:45;;;;;;;19.95;13.40;;;;;;;;;;5054023;28;20039;-63
2021/08/09 06:21:12;;;;;;;23.60;13.13;;;;;;;;;;5052686;28;20020;-64
2021/08/09 06:23:38;;;;;;;19.55;13.25;;;;;;;;;;5072637;28;20082;-64
2021/08/09 06:26:04;;;;;;;21.40;13.70;;;;;;;;;;5053416;28;20016;-64
2021/08/09 06:28:30;;;;;;;17.73;12.55;;;;;;;;;;5054235;28;20396;-63
2021/08/09 06:30:56;;;;;;;19.83;13.45;;;;;;;;;;5072129;28;20497;-67
2021/08/09 06:33:22;;;;;;;28.73;13.80;;;;;;;;;;5054241;28;20025;-65
2021/08/09 06:35:48;;;;;;;17.23;12.95;;;;;;;;;;5071287;28;20035;-65
2021/08/09 06:38:14;;;;;;;18.60;12.60;;;;;;;;;;5054139;28;20400;-65
2021/08/09 06:40:41;;;;;;;16.83;12.57;;;;;;;;;;5071692;28;20020;-65
2021/08/09 06:43:08;;;;;;;19.40;12.73;;;;;;;;;;5071744;28;20131;-65
2021/08/09 06:45:34;;;;;;;19.80;12.60;;;;;;;;;;5070966;28;20570;-65
2021/08/09 06:48:00;;;;;;;21.48;13.40;;;;;;;;;;5071501;28;20099;-65
2021/08/09 06:50:26;;;;;;;17.90;13.02;;;;;;;;;;5071851;28;20016;-64
2021/08/09 06:52:52;;;;;;;18.10;12.77;;;;;;;;;;5053921;28;20021;-65
2021/08/09 06:55:18;;;;;;;19.50;13.27;;;;;;;;;;5070740;28;20439;-67
2021/08/09 06:57:44;;;;;;;18.02;13.07;;;;;;;;;;5071324;28;20025;-63
2021/08/09 07:00:10;;;;;;;21.88;13.27;;;;;;;;;;5053401;28;20013;-63
2021/08/09 07:02:36;;;;;;;19.23;12.85;;;;;;;;;;5053190;28;20484;-64
2021/08/09 07:05:02;;;;;;;18.85;13.20;;;;;;;;;;5071343;28;20051;-63
2021/08/09 07:07:28;;;;;;;20.05;12.77;;;;;;;;;;5070643;28;20046;-63
2021/08/09 07:09:54;;;;;;;22.65;13.57;;;;;;;;;;5053370;28;20032;-64
2021/08/09 07:12:20;;;;;;;19.85;12.90;;;;;;;;;;5071123;28;20086;-63
2021/08/09 07:14:46;;;;;;;17.45;12.80;;;;;;;;;;5053506;28;20070;-65
2021/08/09 07:17:12;;;;;;;21.27;12.57;;;;;;;;;;5052665;28;20476;-63
2021/08/09 07:19:40;;;;;;;19.60;13.10;;;;;;;;;;5053325;28;20381;-60
2021/08/09 07:22:06;;;;;;;17.65;12.60;;;;;;;;;;5069980;28;20016;-62
2021/08/09 07:24:32;;;;;;;19.08;12.77;;;;;;;;;;5071549;28;20074;-60
2021/08/09 07:26:57;;;;;;;17.73;12.52;;;;;;;;;;5070886;28;20333;-61
2021/08/09 07:29:24;;;;;;;16.90;12.88;;;;;;;;;;5071428;28;20039;-62
2021/08/09 07:31:50;;;;;;;20.77;13.35;;;;;;;;;;5071643;28;20047;-62
2021/08/09 07:34:16;;;;;;;19.30;12.73;;;;;;;;;;5071218;28;20036;-63
2021/08/09 07:36:42;;;;;;;18.42;12.48;;;;;;;;;;5049604;28;20025;-62
2021/08/09 07:39:08;;;;;;;18.85;12.48;;;;;;;;;;5052805;28;20029;-62
2021/08/09 07:41:34;;;;;;;19.23;12.52;;;;;;;;;;5071206;28;20028;-63
2021/08/09 07:44:00;;;;;;;20.88;13.45;;;;;;;;;;5071009;28;20353;-63
2021/08/09 07:46:27;;;;;;;16.00;12.32;;;;;;;;;;5052587;28;20021;-63
2021/08/09 07:48:56;;;;;;;18.05;13.27;;;;;;;;;;5071409;28;20024;-64
2021/08/09 07:51:22;;;;;;;22.52;12.75;;;;;;;;;;5071530;28;20036;-64
2021/08/09 07:53:48;;;;;;;18.63;12.93;;;;;;;;;;5073825;28;20031;-62
2021/08/09 07:56:14;;;;;;;18.95;13.50;;;;;;;;;;5054949;28;20378;-64
2021/08/09 07:58:40;;;;;;;20.75;13.13;;;;;;;;;;5075406;28;20035;-63
2021/08/09 08:01:07;;;;;;;19.15;12.93;;;;;;;;;;5053717;28;20028;-64
2021/08/09 08:03:33;;;;;;;20.55;13.95;;;;;;;;;;5053636;28;20067;-63
2021/08/09 08:05:59;;;;;;;20.10;14.43;;;;;;;;;;5054547;28;20041;-62
2021/08/09 08:08:25;;;;;;;20.67;14.10;;;;;;;;;;5054903;28;20048;-63
2021/08/09 08:10:51;;;;;;;21.00;15.07;;;;;;;;;;5053588;28;20021;-62
2021/08/09 08:13:17;;;;;;;20.95;14.88;;;;;;;;;;5053877;28;20021;-63
2021/08/09 08:15:43;;;;;;;19.88;14.25;;;;;;;;;;5054123;28;20021;-63
2021/08/09 08:18:09;;;;;;;19.58;14.70;;;;;;;;;;5053852;28;20139;-64
2021/08/09 08:20:36;;;;;;;19.63;14.65;;;;;;;;;;5053830;28;20107;-63
2021/08/09 08:23:04;;;;;;;20.48;14.30;;;;;;;;;;5053591;28;20126;-63
2021/08/09 08:25:31;;;;;;;21.42;13.88;;;;;;;;;;5054394;28;20017;-64
2021/08/09 08:27:57;;;;;;;19.77;14.48;;;;;;;;;;5055019;28;20040;-64
2021/08/09 08:30:23;;;;;;;19.00;13.35;;;;;;;;;;5053488;28;20111;-62
2021/08/09 08:32:49;;;;;;;19.45;13.80;;;;;;;;;;5054659;28;20083;-63
2021/08/09 08:35:15;;;;;;;19.55;13.98;;;;;;;;;;5053599;28;20443;-65
2021/08/09 08:37:41;;;;;;;20.38;14.93;;;;;;;;;;5052828;28;20033;-62
2021/08/09 08:40:07;;;;;;;18.02;13.43;;;;;;;;;;5053903;28;20021;-58
2021/08/09 08:42:33;;;;;;;20.25;13.10;;;;;;;;;;5053130;28;20452;-64
2021/08/09 08:45:00;;;;;;;20.27;14.20;;;;;;;;;;5054405;28;20067;-63
2021/08/09 08:47:29;;;;;;;20.33;14.00;;;;;;;;;;5053925;28;20021;-64
2021/08/09 08:49:54;;;;;;;;;;;;;;;;;;5054824;28;20071;-63
2021/08/09 08:52:20;;;;;;;18.75;13.65;;;;;;;;;;5053179;28;19904;-60
2021/08/09 08:54:46;;;;;;;21.05;13.55;;;;;;;;;;5052900;28;20033;-63
2021/08/09 08:57:20;;;;;;;19.02;13.70;;;;;;;;;;5053735;28;20480;-62
2021/08/09 08:59:46;;;;;;;18.02;14.23;;;;;;;;;;5053980;28;20269;-63
2021/08/09 09:02:31;;;;;;;19.13;13.82;;;;;;;;;;5052586;28;20024;-62
2021/08/09 09:05:09;;;;;;;18.05;13.00;;;;;;;;;;5053640;28;20024;-63
2021/08/09 09:07:35;;;;;;;18.75;13.02;;;;;;;;;;5051862;28;20025;-64
2021/08/09 09:10:22;;;;;;;17.38;13.18;;;;;;;;;;5052504;28;20029;-61
2021/08/09 09:13:08;;;;;;;17.48;12.73;;;;;;;;;;5052624;28;20029;-64
2021/08/09 09:15:56;;;;;;;17.33;12.98;;;19.30;99.90;;;;;;5051344;28;20485;-63
2021/08/09 09:18:22;;;;;;;;;;;18.60;99.90;;;;;;5050222;28;20127;-61
2021/08/09 09:20:48;;;;;;;18.17;13.02;;;18.60;99.90;;;;;;5053372;28;20316;-64
2021/08/09 09:23:20;;;;;;;18.50;13.52;;;18.80;99.90;;;;;;5051942;28;20029;-64
2021/08/09 09:25:47;;;;;;;18.08;13.77;;;18.90;99.90;;;;;;5052366;28;20113;-64
2021/08/09 09:28:33;;;;;;;17.25;13.35;;;19.10;99.90;;;;;;5052410;28;20029;-62
2021/08/09 09:31:05;;;;;;;21.55;13.85;;;19.50;99.90;;;;;;5052218;28;20025;-62
2021/08/09 09:33:31;;;;;;;18.60;14.57;;;19.50;99.90;;;;;;5053104;28;20119;-64
2021/08/09 09:36:04;;;;;;;17.67;14.13;;;19.40;99.90;;;;;;5052632;28;20025;-64
2021/08/09 09:38:43;;;;;;;18.83;14.15;;;19.60;99.90;;;;;;5051522;28;20396;-64
2021/08/09 09:41:09;;;;;;;;;;;19.70;99.90;;;;;;5053871;28;20027;-64
2021/08/09 09:43:42;;;;;;;21.30;14.80;;;19.80;99.90;;;;;;5051950;28;20007;-64
2021/08/09 09:46:24;;;;;;;17.63;14.18;;;19.90;99.90;;;;;;5052259;28;20043;-63
2021/08/09 09:48:50;;;;;;;19.33;14.48;;;19.90;99.90;;;;;;5052806;28;20112;-62
2021/08/09 09:51:19;;;;;;;19.65;14.40;;;19.80;99.90;;;;;;5052708;28;20037;-63
2021/08/09 09:53:49;;;;;;;17.55;14.60;;;19.80;99.90;;;;;;5052606;28;20021;-62
2021/08/09 09:56:15;;;;;;;20.45;14.48;;;19.60;99.90;;;;;;5050000;28;20426;-63
2021/08/09 09:58:41;;;;;;;19.95;14.80;;;19.70;99.90;;;;;;5052765;28;20100;-63
2021/08/09 10:01:08;;;;;;;18.67;14.60;;;19.50;99.90;;;;;;5052002;28;20138;-63
2021/08/09 10:03:36;;;;;;;18.58;14.23;;;19.70;99.90;;;;;;5052033;28;20062;-64
2021/08/09 10:06:02;;;;;;;19.73;15.10;;;19.90;99.90;;;;;;5050262;28;20028;-65
2021/08/09 10:08:32;;;;;;;18.23;14.98;;;20.10;99.90;;;;;;5052517;28;20032;-64
2021/08/09 10:11:00;;;;;;;19.08;15.27;;;20.40;99.90;;;;;;5051413;28;20167;-65
2021/08/09 10:13:27;;;;;;;18.80;14.80;;;20.50;99.90;;;;;;5051177;28;20032;-64
2021/08/09 10:16:03;;;;;;;19.13;14.90;;;20.50;99.90;;;;;;5051461;28;20041;-63
2021/08/09 10:18:31;;;;;;;22.55;15.57;;;20.40;99.90;;;;;;5051926;28;20055;-63
2021/08/09 10:20:59;;;;;;;18.45;15.25;;;20.10;99.90;;;;;;5052421;28;20438;-54
2021/08/09 10:23:37;;;;;;;19.57;15.00;;;19.90;99.90;;;;;;5052242;28;20041;-61
2021/08/09 10:26:04;;;;;;;19.20;14.93;;;20.00;99.90;;;;;;5049751;28;20029;-60
2021/08/09 10:28:54;;;;;;;19.95;15.35;;;20.30;99.90;;;;;;5050643;28;20032;-64
2021/08/09 10:31:24;;;;;;;18.80;15.05;;;20.50;99.90;;;;;;5051943;28;20021;-63
2021/08/09 10:33:51;;;;;;;18.95;15.13;;;;;;;;;;5050667;28;20058;-63
2021/08/09 10:36:21;;;;;;;20.20;15.63;;;;;;;;;;5048227;28;20111;-57
2021/08/09 10:38:47;;;;;;;18.05;15.07;;;;;;;;;;5051606;28;20029;-63
2021/08/09 10:41:16;;;;;;;18.70;15.13;;;;;;;;;;5052037;28;20096;-63
2021/08/09 10:44:01;;;;;;;18.75;15.02;;;;;;;;;;5051758;28;20488;-64
2021/08/09 10:46:45;;;;;;;19.75;15.15;;;;;;;;;;5049570;28;20024;-63
2021/08/09 10:49:31;;;;;;;17.38;14.82;;;;;;;;;;5051561;28;20057;-62
2021/08/09 10:51:57;;;;;;;18.17;15.05;;;;;;;;;;5050247;28;20029;-61
2021/08/09 10:54:35;;;;;;;18.90;15.77;;;;;;;;;;5051629;28;20504;-61
2021/08/09 10:57:01;;;;;;;22.00;15.20;;;;;;;;;;5049260;28;20037;-60
2021/08/09 10:59:36;;;;;;;19.13;15.68;;;;;;;;;;5051498;28;20021;-62
2021/08/09 11:02:03;;;;;;;19.08;15.10;;;;;;;;;;5033451;28;20116;-63
2021/08/09 11:04:29;;;;;;;18.98;15.23;;;;;;;;;;5051323;28;20155;-63
2021/08/09 11:06:55;;;;;;;18.73;14.52;;;;;;;;;;5050923;28;20057;-63
2021/08/09 11:09:30;;;;;;;18.00;14.90;;;;;;;;;;5051409;28;20029;-64
2021/08/09 11:12:12;;;;;;;18.92;14.98;;;;;;;;;;5052584;28;20487;-63
2021/08/09 11:14:57;;;;;;;17.25;14.30;;;;;;;;;;5051301;28;20029;-63
2021/08/09 11:17:24;;;;;;;16.90;14.52;;;;;;;;;;5069744;28;20564;-63
2021/08/09 11:19:50;;;;;;;21.08;16.08;;;;;;;;;;5070682;28;20082;-64
2021/08/09 11:22:20;;;;;;;21.15;15.10;;;;;;;;;;5052881;28;20024;-64
2021/08/09 11:24:46;;;;;;;18.95;14.90;;;;;;;;;;5071111;28;20023;-64
2021/08/09 11:27:12;;;;;;;18.98;14.73;;;;;;;;;;5070175;28;20021;-58
2021/08/09 11:29:51;;;;;;;18.83;14.50;;;;;;;;;;5070720;28;20024;-64
2021/08/09 11:32:34;;;;;;;19.88;14.88;;;;;;;;;;5069471;28;20017;-62
2021/08/09 11:35:01;;;;;;;20.65;15.52;;;;;;;;;;5069889;28;20054;-58
2021/08/09 11:37:27;;;;;;;18.10;15.63;;;;;;;;;;5050472;28;20029;-64
2021/08/09 11:39:53;;;;;;;23.77;15.73;;;;;;;;;;5070300;28;20477;-62
2021/08/09 11:42:19;;;;;;;18.25;15.15;;;;;;;;;;5070581;28;20103;-64
2021/08/09 11:44:46;;;;;;;18.70;15.13;;;;;;;;;;5070224;28;20019;-62
2021/08/09 11:47:20;;;;;;;17.30;15.13;;;;;;;;;;5070678;28;20467;-64
2021/08/09 11:49:46;;;;;;;18.55;15.48;;;;;;;;;;5053378;28;20023;-63
2021/08/09 11:52:18;;;;;;;17.20;15.10;;;;;;;;;;5052212;28;20397;-64
2021/08/09 11:54:44;;;;;;;19.05;15.30;;;;;;;;;;5049846;28;20041;-63
2021/08/09 11:57:10;;;;;;;18.13;14.82;;;;;;;;;;5038703;22;20652;-61
2021/08/09 11:59:40;;;;;;;19.00;15.40;;;;;;;;;;5010266;28;20034;-61
2021/08/09 12:02:07;;;;;;;17.85;15.35;;;;;;;;;;5011840;28;20026;-62
2021/08/09 12:04:43;;;;;;;18.50;15.02;;;;;;;;;;5010210;28;20022;-62
2021/08/09 12:07:24;;;;;;;19.17;14.73;;;;;;;;;;5010813;28;20029;-62
2021/08/09 12:09:49;;;;;;;18.83;14.90;;;;;;;;;;5011445;28;20033;-62
2021/08/09 12:12:16;;;;;;;19.00;14.80;;;;;;;;;;5010168;28;20038;-64
2021/08/09 12:14:43;;;;;;;20.20;15.00;;;;;;;;;;5010303;28;20022;-65
2021/08/09 12:17:12;;;;;;;18.10;15.57;;;;;;;;;;5010517;28;20030;-64
2021/08/09 12:19:39;;;;;;;20.15;15.20;;;20.80;99.90;;;;;;5011381;28;20418;-66
2021/08/09 12:22:29;;;;;;;19.08;15.38;;;;;;;;;;5010179;28;20018;-67
2021/08/09 12:25:04;;;;;;;18.75;15.38;;;;;;;;;;5003331;28;20161;-66
2021/08/09 12:27:31;;;;;;;18.63;15.32;;;;;;;;;;5009067;28;20029;-67
2021/08/09 12:30:08;;;;;;;20.15;15.60;;;;;;;;;;5009924;28;20038;-62
2021/08/09 12:32:35;;;;;;;18.43;15.37;;;;;;;;;;5011257;28;20054;-62
2021/08/09 12:35:02;;;;;;;18.30;16.20;;;;;;;;;;5010991;28;20315;-66
2021/08/09 12:37:28;;;;;;;18.13;15.40;;;;;;;;;;5007436;28;20018;-64
2021/08/09 12:40:14;;;;;;;17.80;15.82;;;;;;;;;;5009251;28;20026;-64
2021/08/09 12:42:41;;;;;;;19.08;16.92;;;;;;;;;;5011496;28;20034;-66
2021/08/09 12:45:08;;;;;;;22.17;16.55;;;;;;;;;;5012596;28;20478;-62
2021/08/09 12:47:34;;;;;;;19.42;15.82;;;;;;;;;;5013184;28;20033;-66
2021/08/09 12:50:00;;;;;;;18.92;15.68;;;;;;;;;;5012934;28;20021;-61
2021/08/09 12:52:26;;;;;;;18.98;16.25;;;;;;;;;;5014250;28;20105;-61
2021/08/09 12:54:52;;;;;;;19.95;16.40;;;;;;;;;;5014376;28;20100;-60
2021/08/09 12:57:18;;;;;;;18.95;16.48;;;;;;;;;;5013151;28;20189;-62
2021/08/09 12:59:44;;;;;;;18.63;16.65;;;;;;;;;;5014217;28;20394;-62
2021/08/09 13:02:10;;;;;;;18.70;16.40;;;;;;;;;;5014001;28;20026;-67
2021/08/09 13:04:36;;;;;;;21.80;16.80;;;;;;;;;;5013016;28;20117;-64
2021/08/09 13:07:02;;;;;;;18.23;16.02;;;;;;;;;;5012008;28;20018;-63
2021/08/09 13:09:30;;;;;;;20.40;16.38;;;;;;;;;;5013360;28;20482;-62
2021/08/09 13:11:56;;;;;;;18.98;16.25;;;;;;;;;;5012149;28;20029;-63
2021/08/09 13:14:22;;;;;;;18.60;16.52;;;;;;;;;;5012938;28;20036;-65
2021/08/09 13:16:48;;;;;;;19.38;15.60;;;;;;;;;;5012273;28;20030;-63
2021/08/09 13:19:14;;;;;;;18.83;16.02;;;;;;;;;;5012457;28;20026;-63
2021/08/09 13:21:40;;;;;;;19.27;16.17;;;;;;;;;;5013851;28;20083;-64
2021/08/09 13:24:09;;;;;;;18.58;16.13;;;;;;;;;;5013468;28;20504;-64
2021/08/09 13:26:35;;;;;;;18.70;16.23;;;;;;;;;;5013070;28;20025;-64
2021/08/09 13:29:01;;;;;;;20.27;16.80;;;;;;;;;;5012396;28;20034;-63
2021/08/09 13:31:27;;;;;;;19.05;15.90;;;;;;;;;;5012714;28;20022;-66
2021/08/09 13:33:53;;;;;;;18.77;15.88;;;;;;;;;;5010476;28;20400;-64
2021/08/09 13:36:20;;;;;;;19.10;15.35;;;;;;;;;;5013017;28;20026;-64
2021/08/09 13:38:46;;;;;;;20.35;15.77;;;;;;;;;;5011910;28;20026;-64
2021/08/09 13:41:12;;;;;;;18.13;15.98;;;;;;;;;;5013161;28;20030;-63
2021/08/09 13:43:38;;;;;;;18.45;15.80;;;;;;;;;;5011806;28;20117;-63
2021/08/09 13:46:07;;;;;;;17.75;15.60;;;;;;;;;;5012747;28;20022;-64
2021/08/09 13:48:33;;;;;;;;;;;;;;;;;;5013788;28;20092;-64
2021/08/09 13:50:59;;;;;;;17.63;15.48;;;;;;;;;;5013231;28;20388;-63
2021/08/09 13:53:26;;;;;;;17.20;15.40;;;;;;;;;;5011886;28;20085;-63
2021/08/09 13:55:52;;;;;;;17.65;15.15;;;;;;;;;;5012091;28;20064;-64
2021/08/09 13:58:18;;;;;;;20.30;15.55;;;;;;;;;;5013083;28;20402;-67
2021/08/09 14:00:44;;;;;;;20.15;15.07;;;;;;;;;;5002581;28;20130;-63
2021/08/09 14:03:10;;;;;;;19.85;15.57;;;;;;;;;;4991938;28;20122;-63
2021/08/09 14:05:36;;;;;;;17.48;15.57;;;;;;;;;;4992658;28;20225;-64
2021/08/09 14:08:02;;;;;;;17.08;15.25;;;;;;;;;;4993407;28;20026;-63
2021/08/09 14:10:28;;;;;;;18.42;15.05;;;;;;;;;;4993278;28;20026;-65